Time;durP1;ratioP1;P1;durP2;ratioP2;P2;SDS_P1;SDS_P2;PMS_P1;PMS_P2;Temp;Humidity;BMP_temperature;BMP_pressure;BME280_temperature;BME280_humidity;BME280_pressure;Samples;Min_cycle;Max_cycle;Signal;HPM_P1;HPM_P2
2021/03/22 00:01:43;;;;;;;12.83;4.90;;;;;;;3.05;74.29;99639.14;1779267;79;20904;-73
2021/03/22 00:04:09;;;;;;;12.40;4.35;;;;;;;3.06;74.25;99645.17;1783783;79;21210;-73
2021/03/22 00:06:35;;;;;;;11.83;4.70;;;;;;;3.04;74.01;99647.09;1777755;79;23385;-73
2021/03/22 00:09:01;;;;;;;14.70;4.20;;;;;;;3.11;73.17;99643.06;1780163;79;22053;-73
2021/03/22 00:11:26;;;;;;;13.30;4.63;;;;;;;3.01;73.34;99644.72;1778468;79;20902;-72
2021/03/22 00:13:52;;;;;;;12.57;4.60;;;;;;;3.07;73.86;99648.64;1773990;79;21288;-73
2021/03/22 00:16:19;;;;;;;11.40;4.50;;;;;;;2.95;73.31;99653.02;1782165;79;22966;-72
2021/03/22 00:18:45;;;;;;;15.90;4.47;;;;;;;3.11;73.45;99653.50;1779778;79;21188;-74
2021/03/22 00:21:12;;;;;;;17.30;5.00;;;;;;;2.92;73.16;99648.89;1773545;79;21257;-74
2021/03/22 00:23:38;;;;;;;12.63;4.22;;;;;;;2.92;73.46;99655.88;1776462;79;21216;-75
2021/03/22 00:26:05;;;;;;;13.97;4.30;;;;;;;2.79;73.56;99659.42;1774629;79;21605;-75
2021/03/22 00:28:31;;;;;;;7.50;2.90;;;;;;;2.84;73.62;99661.68;1777316;79;21223;-75
2021/03/22 00:30:57;;;;;;;10.13;3.92;;;;;;;2.94;73.31;99654.81;1777066;79;21227;-74
2021/03/22 00:33:23;;;;;;;14.53;4.00;;;;;;;2.95;72.97;99663.45;1782271;79;21215;-75
2021/03/22 00:35:49;;;;;;;10.53;3.83;;;;;;;3.01;72.84;99659.88;1776298;79;21235;-74
2021/03/22 00:38:16;;;;;;;12.23;4.17;;;;;;;3.03;72.77;99659.77;1774931;79;21563;-73
2021/03/22 00:40:43;;;;;;;10.23;3.67;;;;;;;2.96;72.65;99662.52;1781824;79;21182;-73
2021/03/22 00:43:09;;;;;;;10.75;3.40;;;;;;;2.72;72.54;99672.59;1778232;79;21222;-74
2021/03/22 00:45:35;;;;;;;9.58;3.65;;;;;;;2.71;72.61;99672.23;1778347;79;22237;-73
2021/03/22 00:48:01;;;;;;;13.63;4.30;;;;;;;2.68;72.91;99676.38;1774906;79;21018;-73
2021/03/22 00:50:36;;;;;;;10.53;3.57;;;;;;;2.64;72.63;99671.88;1778260;78;21612;-74
2021/03/22 00:53:02;;;;;;;13.55;3.40;;;;;;;2.75;72.81;99677.58;1777353;79;21162;-74
2021/03/22 00:55:28;;;;;;;11.18;3.52;;;;;;;2.71;72.96;99675.32;1776255;79;21639;-74
2021/03/22 00:57:54;;;;;;;13.57;4.10;;;;;;;2.72;72.71;99673.90;1782132;78;21920;-74
2021/03/22 01:00:31;;;;;;;10.40;3.60;;;;;;;2.50;72.39;99666.86;1778844;78;20950;-73
2021/03/22 01:02:57;;;;;;;11.73;3.52;;;;;;;2.61;72.64;99673.87;1780456;79;27729;-74
2021/03/22 01:05:24;;;;;;;10.07;3.60;;;;;;;2.60;72.56;99674.83;1776756;79;21219;-72
2021/03/22 01:07:50;;;;;;;11.78;3.62;;;;;;;2.59;72.17;99676.59;1778427;79;21217;-72
2021/03/22 01:10:27;;;;;;;10.08;3.37;;;;;;;2.62;72.17;99685.97;1778155;79;21750;-72
2021/03/22 01:12:53;;;;;;;12.30;3.67;;;;;;;2.50;72.45;99683.80;1770329;79;21200;-72
2021/03/22 01:15:20;;;;;;;12.00;3.47;;;;;;;2.58;72.28;99679.31;1783701;79;21035;-72
2021/03/22 01:17:45;;;;;;;11.53;3.50;;;;;;;2.54;71.95;99681.81;1779098;79;21193;-73
2021/03/22 01:20:13;;;;;;;12.23;3.60;;;;;;;2.58;71.81;99681.92;1777780;79;23278;-73
2021/03/22 01:22:39;;;;;;;10.30;3.50;;;;;;;2.51;72.24;99683.69;1776664;79;21166;-74
2021/03/22 01:25:07;;;;;;;10.97;3.70;;;;;;;2.48;71.87;99680.48;1775114;79;22582;-72
2021/03/22 01:27:32;;;;;;;;;;;;;;;2.46;71.99;99682.39;1779047;79;21607;-72
2021/03/22 01:29:58;;;;;;;12.88;3.65;;;;;;;2.33;72.47;99682.46;1767979;79;20207;-72
2021/03/22 01:32:24;;;;;;;12.17;3.37;;;;;;;2.36;72.27;99683.53;1763343;79;20917;-72
2021/03/22 01:34:50;;;;;;;10.03;3.52;;;;;;;2.33;72.35;99689.83;1762100;80;21726;-72
2021/03/22 01:37:16;;;;;;;12.47;3.43;;;;;;;2.24;72.53;99693.60;1758020;80;21238;-72
2021/03/22 01:39:42;;;;;;;13.43;3.80;;;;;;;2.18;72.90;99694.88;1757370;80;21539;-73
2021/03/22 01:42:48;;;;;;;13.30;3.83;;;;;;;2.20;72.59;99694.77;1759877;80;21196;-72
2021/03/22 01:45:14;;;;;;;14.07;3.77;;;;;;;2.21;72.60;99697.73;1758290;80;21193;-72
2021/03/22 01:47:40;;;;;;;9.77;3.47;;;;;;;2.17;72.82;99691.90;1759391;80;21254;-73
2021/03/22 01:50:27;;;;;;;12.80;3.80;;;;;;;2.17;72.92;99698.89;1761596;80;21710;-73
2021/03/22 01:52:53;;;;;;;13.68;4.30;;;;;;;2.25;73.09;99697.39;1758600;80;21234;-74
2021/03/22 01:55:21;;;;;;;13.53;3.83;;;;;;;2.09;72.89;99707.27;1758702;80;23048;-73
2021/03/22 01:57:47;;;;;;;10.45;3.90;;;;;;;2.36;72.73;99704.38;1759920;80;21195;-73
2021/03/22 02:00:28;;;;;;;10.90;3.85;;;;;;;2.32;72.33;99697.76;1760331;80;21279;-71
2021/03/22 02:03:14;;;;;;;12.93;4.00;;;;;;;2.51;71.71;99695.41;1758491;80;21225;-71
2021/03/22 02:05:44;;;;;;;11.03;3.75;;;;;;;2.56;71.70;99702.06;1759484;80;21639;-71
2021/03/22 02:08:14;;;;;;;12.95;4.25;;;;;;;2.28;72.07;99685.89;1760081;80;21237;-72
2021/03/22 02:10:42;;;;;;;11.83;3.87;;;;;;;2.46;71.68;99692.82;1734414;80;21366;-71
2021/03/22 02:13:08;;;;;;;;;;;;;;;2.44;71.70;99691.62;1757417;80;21221;-72
2021/03/22 02:15:34;;;;;;;10.50;3.75;;;;;;;2.50;71.59;99705.50;1758535;80;20591;-72
2021/03/22 02:18:23;;;;;;;14.63;3.80;;;;;;;2.41;71.74;99711.86;1760003;80;20993;-72
2021/03/22 02:21:07;;;;;;;9.93;4.20;;;;;;;2.25;71.76;99708.27;1760048;80;21236;-72
2021/03/22 02:24:30;;;;;;;9.10;3.70;;;;;;;2.25;71.84;99699.15;1760382;80;21177;-73
2021/03/22 02:27:22;;;;;;;13.55;4.53;;;;;;;2.10;71.95;99694.62;1757901;80;21272;-72
2021/03/22 02:30:25;;;;;;;11.08;4.10;;;;;;;1.85;72.75;99702.92;1717880;79;21235;-73
2021/03/22 02:33:22;;;;;;;12.03;4.35;;;;;;;1.85;72.75;99702.92;1777857;79;21235;-73
2021/03/22 02:35:53;;;;;;;11.85;4.25;;;;;;;1.94;72.60;99704.00;1777026;79;25938;-73
2021/03/22 02:38:36;;;;;;;11.03;4.25;;;;;;;1.88;72.79;99704.45;1781112;79;21235;-72
2021/03/22 02:41:19;;;;;;;12.30;3.98;;;;;;;1.83;73.09;99706.56;1778742;79;21662;-72
2021/03/22 02:44:14;;;;;;;13.03;4.55;;;;;;;1.94;72.89;99707.45;1778964;79;21186;-73
2021/03/22 02:46:40;;;;;;;10.53;4.80;;;;;;;1.89;73.59;99721.74;1776452;79;21201;-73
2021/03/22 02:49:12;;;;;;;16.83;5.03;;;;;;;1.88;73.70;99717.47;1782466;79;22416;-73
2021/03/22 02:52:07;;;;;;;13.15;5.00;;;;;;;1.88;73.86;99725.28;1777992;79;21192;-73
2021/03/22 02:54:47;;;;;;;17.27;4.87;;;;;;;1.67;73.91;99710.27;1775578;79;21664;-72
2021/03/22 02:57:45;;;;;;;13.35;4.10;;;;;;;1.67;73.91;99710.27;1774298;79;21469;-72
2021/03/22 03:00:19;;;;;;;12.65;5.00;;;;;;;1.74;74.04;99731.03;1770584;78;22265;-72
2021/03/22 03:02:44;;;;;;;17.07;4.30;;;;;;;1.78;74.44;99731.15;1780377;78;21212;-72
2021/03/22 03:05:18;;;;;;;14.07;4.30;;;;;;;1.86;74.19;99729.78;1777143;78;20962;-71
2021/03/22 03:07:43;;;;;;;14.68;4.90;;;;;;;1.77;74.27;99738.62;1775904;79;21209;-72
2021/03/22 03:10:11;;;;;;;18.43;5.27;;;;;;;1.49;75.12;99728.05;1777168;79;21137;-72
2021/03/22 03:12:36;;;;;;;12.43;4.75;;;;;;;1.42;75.88;99740.63;1783957;79;21640;-73
2021/03/22 03:15:06;;;;;;;14.27;4.90;;;;;;;1.49;75.67;99740.20;1776070;79;21561;-72
2021/03/22 03:17:32;;;;;;;11.68;4.40;;;;;;;1.48;75.58;99744.58;1777008;79;21711;-72
2021/03/22 03:19:57;;;;;;;12.80;4.53;;;;;;;1.58;75.07;99747.36;1774936;79;21634;-72
2021/03/22 03:22:24;;;;;;;13.33;4.10;;;;;;;1.57;75.25;99750.89;1777947;79;21054;-72
2021/03/22 03:24:50;;;;;;;12.07;3.95;;;;;;;1.62;74.85;99751.42;1779471;79;21218;-72
2021/03/22 03:27:16;;;;;;;15.43;4.37;;;;;;;1.57;75.19;99754.80;1776913;79;20958;-72
2021/03/22 03:29:42;;;;;;;13.80;4.47;;;;;;;1.52;74.91;99753.00;1779789;79;20948;-72
2021/03/22 03:32:11;;;;;;;10.78;4.00;;;;;;;1.52;74.86;99742.59;1759791;80;21233;-72
2021/03/22 03:34:37;;;;;;;11.30;3.72;;;;;;;1.52;74.86;99742.59;1761179;80;21208;-72
2021/03/22 03:37:04;;;;;;;13.23;4.43;;;;;;;1.63;74.71;99764.77;1758747;80;21022;-73
2021/03/22 03:39:30;;;;;;;11.37;4.23;;;;;;;1.67;74.41;99772.73;1762237;80;21222;-72
2021/03/22 03:41:55;;;;;;;12.93;3.80;;;;;;;1.69;74.30;99779.95;1757740;80;21007;-71
2021/03/22 03:44:21;;;;;;;10.70;3.80;;;;;;;1.66;74.39;99777.57;1755416;80;21108;-71
2021/03/22 03:46:47;;;;;;;12.70;4.10;;;;;;;1.55;74.65;99784.01;1760718;80;20955;-71
2021/03/22 03:49:13;;;;;;;12.90;3.93;;;;;;;1.57;74.59;99779.52;1759193;80;20964;-72
2021/03/22 03:51:39;;;;;;;11.40;3.60;;;;;;;1.53;74.55;99780.69;1760859;80;21487;-71
2021/03/22 03:54:06;;;;;;;12.73;4.27;;;;;;;1.58;74.34;99782.02;1761294;80;20960;-74
2021/03/22 03:56:33;;;;;;;12.63;3.87;;;;;;;1.51;74.43;99794.26;1759926;80;21222;-74
2021/03/22 03:58:58;;;;;;;8.45;3.33;;;;;;;1.51;74.53;99798.16;1755976;80;21223;-74
2021/03/22 04:01:25;;;;;;;9.67;3.57;;;;;;;1.51;74.54;99796.41;1761052;80;21086;-74
2021/03/22 04:03:51;;;;;;;9.40;3.27;;;;;;;1.57;74.32;99799.03;1761031;80;21185;-74
2021/03/22 04:06:27;;;;;;;13.77;3.57;;;;;;;1.69;74.13;99796.88;1760792;80;20968;-74
2021/03/22 04:08:57;;;;;;;10.55;3.70;;;;;;;1.67;74.01;99794.86;1758179;80;21386;-74
2021/03/22 04:11:30;;;;;;;13.10;3.77;;;;;;;1.69;74.03;99801.26;1758837;80;21666;-74
2021/03/22 04:13:57;;;;;;;14.63;3.92;;;;;;;1.56;74.66;99804.72;1751149;80;21205;-74
2021/03/22 04:16:23;;;;;;;16.77;3.73;;;;;;;1.68;74.55;99803.05;1758686;80;21663;-74
2021/03/22 04:18:49;;;;;;;12.75;4.55;;;;;;;1.59;74.77;99802.38;1760890;80;21146;-74
2021/03/22 04:21:22;;;;;;;13.45;4.92;;;;;;;1.55;75.06;99805.64;1760805;80;21242;-73
2021/03/22 04:23:47;;;;;;;11.85;4.40;;;;;;;1.58;75.14;99802.83;1758841;80;21230;-72
2021/03/22 04:26:14;;;;;;;13.23;4.37;;;;;;;1.57;75.24;99810.75;1758223;80;20919;-71
2021/03/22 04:28:40;;;;;;;13.48;5.20;;;;;;;1.43;75.77;99812.55;1758166;80;21141;-71
2021/03/22 04:31:06;;;;;;;13.22;5.30;;;;;;;1.45;75.94;99814.23;1768879;79;21631;-73
2021/03/22 04:33:32;;;;;;;14.45;5.17;;;;;;;1.42;76.14;99813.48;1775035;79;21658;-73
2021/03/22 04:35:58;;;;;;;16.65;6.25;;;;;;;1.28;76.60;99818.81;1777848;79;21243;-73
2021/03/22 04:38:24;;;;;;;13.18;5.00;;;;;;;1.12;77.33;99815.57;1777458;79;21196;-73
2021/03/22 04:40:49;;;;;;;16.33;5.50;;;;;;;1.11;77.74;99823.03;1776257;79;20947;-73
2021/03/22 04:43:15;;;;;;;16.00;5.30;;;;;;;1.15;77.96;99825.77;1779101;79;20977;-72
2021/03/22 04:45:41;;;;;;;16.63;5.57;;;;;;;1.17;77.91;99822.14;1778519;79;21445;-73
2021/03/22 04:48:07;;;;;;;16.13;5.23;;;;;;;1.12;78.07;99821.62;1780940;79;20908;-73
2021/03/22 04:50:33;;;;;;;13.60;5.20;;;;;;;1.00;78.07;99820.67;1778867;79;21220;-73
2021/03/22 04:52:59;;;;;;;15.30;5.30;;;;;;;1.06;77.89;99822.86;1775835;79;20989;-73
2021/03/22 04:55:25;;;;;;;14.80;5.63;;;;;;;0.94;78.33;99819.78;1777062;79;20951;-73
2021/03/22 04:57:51;;;;;;;19.00;6.20;;;;;;;0.77;79.09;99827.40;1773739;79;21365;-73
2021/03/22 05:00:30;;;;;;;16.93;5.87;;;;;;;0.64;79.59;99816.99;1777212;79;21741;-72
2021/03/22 05:02:56;;;;;;;18.05;5.87;;;;;;;0.65;79.99;99816.06;1775281;79;21224;-72
2021/03/22 05:05:23;;;;;;;15.60;5.50;;;;;;;0.61;80.09;99817.19;1776582;78;21085;-72
2021/03/22 05:07:50;;;;;;;15.00;5.10;;;;;;;0.61;80.22;99822.39;1777121;78;21184;-72
2021/03/22 05:10:23;;;;;;;17.92;5.58;;;;;;;0.70;79.90;99826.98;1775458;79;21189;-72
2021/03/22 05:12:49;;;;;;;19.20;6.40;;;;;;;0.74;79.87;99822.88;1776632;79;21192;-72
2021/03/22 05:15:15;;;;;;;19.30;6.10;;;;;;;0.65;80.23;99822.56;1775755;79;21569;-72
2021/03/22 05:17:41;;;;;;;16.48;6.22;;;;;;;0.69;80.23;99822.70;1777682;79;21201;-72
2021/03/22 05:20:11;;;;;;;19.17;6.23;;;;;;;0.64;80.65;99826.09;1781568;79;20910;-72
2021/03/22 05:22:37;;;;;;;18.67;6.78;;;;;;;0.67;80.62;99827.19;1779989;79;21639;-72
2021/03/22 05:25:04;;;;;;;19.93;6.83;;;;;;;0.66;80.64;99830.70;1776304;79;21185;-72
2021/03/22 05:27:30;;;;;;;24.85;8.08;;;;;;;0.75;80.43;99832.36;1777553;79;22125;-73
2021/03/22 05:29:56;;;;;;;24.33;8.27;;;;;;;0.57;81.37;99831.78;1774901;79;21090;-72
2021/03/22 05:32:30;;;;;;;25.20;7.53;;;;;;;0.49;82.07;99830.98;1779731;78;20939;-72
2021/03/22 05:34:58;;;;;;;24.40;8.20;;;;;;;0.62;81.64;99834.45;1780493;79;21177;-72
2021/03/22 05:37:25;;;;;;;25.12;8.33;;;;;;;0.59;81.86;99833.36;1778288;79;21220;-72
2021/03/22 05:39:50;;;;;;;27.20;9.08;;;;;;;0.55;82.31;99833.18;1777922;79;21578;-72
2021/03/22 05:42:28;;;;;;;23.10;8.30;;;;;;;0.59;82.31;99834.66;1780576;79;20965;-72
2021/03/22 05:45:00;;;;;;;20.88;8.15;;;;;;;0.53;82.59;99831.16;1777488;79;21187;-72
2021/03/22 05:47:42;;;;;;;19.60;7.90;;;;;;;0.64;82.63;99841.67;1762821;78;22561;-72
2021/03/22 05:50:13;;;;;;;26.77;8.68;;;;;;;0.73;82.30;99845.90;1778974;79;21206;-72
2021/03/22 05:53:15;;;;;;;32.58;10.55;;;;;;;0.69;82.54;99842.20;1780445;79;21142;-72
2021/03/22 05:55:52;;;;;;;29.23;10.00;;;;;;;0.65;82.93;99848.55;1781264;79;21220;-73
2021/03/22 05:59:09;;;;;;;20.80;8.65;;;;;;;0.67;83.09;99851.88;1775381;79;21254;-73
2021/03/22 06:01:50;;;;;;;25.23;8.88;;;;;;;0.78;82.97;99856.81;1779418;79;21973;-74
2021/03/22 06:04:25;;;;;;;21.97;9.10;;;;;;;0.93;82.66;99861.48;1779379;79;21189;-71
2021/03/22 06:06:50;;;;;;;26.02;9.65;;;;;;;0.96;82.49;99862.10;1776644;79;21214;-73
2021/03/22 06:09:28;;;;;;;34.57;10.23;;;;;;;0.97;82.77;99865.08;1776293;79;20934;-72
2021/03/22 06:12:00;;;;;;;;;;;;;;;1.21;82.67;99869.56;1776844;79;21192;-74
2021/03/22 06:14:37;;;;;;;25.57;8.98;;;;;;;1.29;82.11;99875.11;1780477;79;21064;-75
2021/03/22 06:17:20;;;;;;;23.52;8.68;;;;;;;1.30;82.27;99879.36;1778033;79;25382;-75
2021/03/22 06:19:56;;;;;;;25.08;9.75;;;;;;;1.28;82.07;99876.03;1775693;79;22293;-74
2021/03/22 06:22:31;;;;;;;26.12;10.90;;;;;;;1.25;82.51;99878.84;1778513;79;21230;-74
2021/03/22 06:24:58;;;;;;;28.32;10.00;;;;;;;1.41;82.16;99883.83;1784874;79;21204;-74
2021/03/22 06:27:24;;;;;;;32.48;10.98;;;;;;;1.46;81.75;99888.72;1775063;79;21200;-73
2021/03/22 06:29:52;;;;;;;27.57;10.13;;;;;;;1.44;81.88;99882.33;1783214;79;20925;-74
2021/03/22 06:32:28;;;;;;;29.07;10.60;;;;;;;1.51;81.37;99887.94;1779369;79;21201;-73
2021/03/22 06:35:05;;;;;;;35.55;11.63;;;;;;;1.51;81.37;99887.94;1778327;78;21213;-76
2021/03/22 06:37:34;;;;;;;23.32;9.10;;;;;;;1.52;81.76;99893.52;1776402;79;21190;-74
2021/03/22 06:40:26;;;;;;;27.27;10.13;;;;;;;1.70;81.05;99896.64;1773507;79;21984;-73
2021/03/22 06:43:10;;;;;;;28.95;10.45;;;;;;;1.69;81.13;99899.69;1776700;79;21188;-72
2021/03/22 06:45:48;;;;;;;34.98;11.12;;;;;;;1.72;81.03;99907.77;1781022;78;21196;-74
2021/03/22 06:48:32;;;;;;;29.45;10.85;;;;;;;1.75;81.24;99910.98;1781505;79;21168;-74
2021/03/22 06:51:13;;;;;;;31.70;11.28;;;;;;;1.81;81.06;99912.34;1779939;79;21165;-73
2021/03/22 06:53:45;;;;;;;28.50;10.32;;;;;;;1.96;80.83;99913.06;1778497;79;22701;-74
2021/03/22 06:56:24;;;;;;;29.55;11.15;;;;;;;1.95;80.46;99916.59;1780025;78;21201;-72
2021/03/22 06:59:13;;;;;;;30.48;10.20;;;;;;;2.19;80.40;99915.81;1778805;78;21186;-74
2021/03/22 07:01:41;;;;;;;31.12;9.40;;;;;;;2.19;80.40;99915.81;1776571;78;21204;-72
2021/03/22 07:04:30;;;;;;;27.00;9.55;;;;;;;2.22;79.75;99912.99;1776292;79;21182;-73
2021/03/22 07:07:16;;;;;;;25.30;10.05;;;;;;;2.37;79.59;99931.45;1777718;78;23460;-74
2021/03/22 07:09:59;;;;;;;30.68;10.32;;;;;;;2.37;79.59;99931.45;1780680;78;21163;-75
2021/03/22 07:12:34;;;;;;;25.25;9.80;;;;;;;2.49;79.17;99927.97;1779126;78;21106;-73
2021/03/22 07:15:23;;;;;;;29.07;10.00;;;;;;;2.56;79.09;99923.63;1778967;79;21236;-76
2021/03/22 07:18:13;;;;;;;30.65;10.35;;;;;;;2.49;79.11;99920.63;1775809;79;21639;-74
2021/03/22 07:20:41;;;;;;;24.23;9.43;;;;;;;2.64;78.58;99922.59;1776327;79;21312;-76
2021/03/22 07:23:29;;;;;;;27.22;10.32;;;;;;;2.85;78.20;99937.98;1780834;79;21255;-74
2021/03/22 07:26:05;;;;;;;24.77;9.40;;;;;;;2.80;78.12;99936.67;1776709;79;21197;-74
2021/03/22 07:28:55;;;;;;;15.67;6.33;;;;;;;2.94;77.98;99933.06;1778956;79;21201;-74
2021/03/22 07:31:52;;;;;;;24.95;9.80;;;;;;;2.85;77.49;99937.98;1776109;79;21567;-75
2021/03/22 07:34:43;;;;;;;28.05;9.80;;;;;;;2.88;77.51;99940.37;1752303;79;21356;-74
2021/03/22 07:37:35;;;;;;;24.55;9.33;;;;;;;2.91;77.30;99946.33;1747884;80;21217;-74
2021/03/22 07:40:15;;;;;;;25.37;9.13;;;;;;;3.10;76.72;99946.63;1750974;80;21263;-73
2021/03/22 07:43:02;;;;;;;28.92;9.78;;;;;;;3.17;76.18;99940.02;1748984;80;21584;-74
2021/03/22 07:45:53;;;;;;;25.43;9.50;;;;;;;3.17;76.33;99950.45;1750423;80;21248;-75
2021/03/22 07:49:01;;;;;;;27.02;9.60;;;;;;;3.15;76.42;99956.23;1750532;80;21891;-74
2021/03/22 07:51:52;;;;;;;26.85;10.32;;;;;;;3.19;76.29;99957.69;1749643;80;21153;-75
2021/03/22 07:54:46;;;;;;;25.32;9.35;;;;;;;3.20;76.15;99952.84;1752482;80;21234;-72
2021/03/22 07:57:39;;;;;;;22.48;10.35;;;;;;;3.39;76.17;99952.77;1750118;79;21210;-75
2021/03/22 08:00:20;;;;;;;24.85;9.63;;;;;;;3.33;75.69;99946.70;1752454;80;21662;-74
2021/03/22 08:03:08;;;;;;;28.40;9.93;;;;;;;3.38;75.30;99955.02;1746149;80;22307;-74
2021/03/22 08:06:03;;;;;;;26.65;10.10;;;;;;;3.47;75.03;99960.85;1752511;80;21591;-74
2021/03/22 08:09:01;;;;;;;26.23;9.05;;;;;;;3.67;74.66;99963.75;1748899;80;21191;-75
2021/03/22 08:11:51;;;;;;;26.73;9.43;;;;;;;3.78;73.00;99966.38;1750562;80;21220;-75
2021/03/22 08:14:32;;;;;;;21.30;8.15;;;;;;;3.75;72.80;99970.52;1748541;80;21174;-74
2021/03/22 08:17:33;;;;;;;23.95;9.03;;;;;;;3.77;72.10;99968.61;1749053;80;21650;-75
2021/03/22 08:20:27;;;;;;;20.55;8.90;;;;;;;3.83;72.12;99965.54;1751507;80;21197;-74
2021/03/22 08:23:17;;;;;;;26.70;8.80;;;;;;;3.81;72.84;99990.95;1749634;80;21216;-74
2021/03/22 08:25:49;;;;;;;19.00;8.03;;;;;;;3.85;72.60;100000.20;1750557;80;21205;-73
2021/03/22 08:28:37;;;;;;;23.55;8.05;;;;;;;3.84;73.31;99993.78;1750690;80;21208;-75
2021/03/22 08:31:15;;;;;;;23.15;7.67;;;;;;;3.94;73.88;100002.11;1748987;80;21172;-75
2021/03/22 08:33:45;;;;;;;16.80;7.35;;;;;;;3.67;76.00;99989.87;1775798;79;21215;-75
2021/03/22 08:36:49;;;;;;;18.67;6.92;;;;;;;3.56;77.51;99995.89;1778724;79;21193;-74
2021/03/22 08:39:31;;;;;;;19.42;7.25;;;;;;;3.76;76.92;100004.84;1775509;79;21212;-75
2021/03/22 08:42:23;;;;;;;19.32;7.47;;;;;;;3.62;78.19;99997.19;1775487;79;22300;-74
2021/03/22 08:45:07;;;;;;;15.23;6.67;;;;;;;3.77;78.32;99997.34;1776054;79;21197;-75
2021/03/22 08:47:48;;;;;;;20.02;7.05;;;;;;;3.84;78.56;99993.33;1752732;79;21631;-75
2021/03/22 08:50:20;;;;;;;18.07;6.70;;;;;;;3.83;78.93;99999.49;1776339;79;21216;-75
2021/03/22 08:52:54;;;;;;;18.00;7.08;;;;;;;3.85;78.61;99994.97;1776149;79;21237;-75
2021/03/22 08:55:21;;;;;;;18.85;7.20;;;;;;;3.73;79.11;99985.48;1779973;79;21606;-75
2021/03/22 08:58:09;;;;;;;20.43;7.12;;;;;;;3.83;78.61;99991.66;1780263;79;21263;-75
2021/03/22 09:00:43;;;;;;;17.20;7.35;;;;;;;3.90;78.54;99985.03;1777358;79;21233;-76
2021/03/22 09:03:29;;;;;;;24.05;7.65;;;;;;;4.13;78.05;99995.48;1775213;78;21731;-76
2021/03/22 09:06:15;;;;;;;19.82;7.62;;;;;;;4.25;77.71;99994.52;1781873;78;21265;-75
2021/03/22 09:08:54;;;;;;;20.17;7.67;;;;;;;4.46;76.83;99995.13;1779224;79;21192;-74
2021/03/22 09:11:41;;;;;;;19.48;7.85;;;;;;;4.43;76.36;99996.67;1773149;78;22279;-74
2021/03/22 09:14:40;;;;;;;21.37;8.33;;;;;;;4.62;76.08;99992.95;1776077;78;21209;-74
2021/03/22 09:17:47;;;;;;;19.48;7.80;;;;;;;4.39;76.37;100002.59;1776149;79;21689;-74
2021/03/22 09:20:28;;;;;;;22.05;8.10;;;;;;;4.82;75.27;100002.31;1774633;79;21196;-72
2021/03/22 09:23:03;;;;;;;18.90;7.67;;;;;;;4.72;74.57;100006.60;1775865;79;21204;-73
2021/03/22 09:25:55;;;;;;;18.50;7.25;;;;;;;4.68;74.65;100009.46;1780031;79;21340;-74
2021/03/22 09:28:27;;;;;;;15.68;6.87;;;;;;;4.58;74.84;99996.75;1779257;79;21211;-73
2021/03/22 09:31:15;;;;;;;23.02;6.97;;;;;;;4.80;73.85;99998.97;1778056;79;21224;-72
2021/03/22 09:34:18;;;;;;;17.87;7.20;;;;;;;4.80;74.17;100005.51;1764357;79;21310;-74
2021/03/22 09:36:48;;;;;;;18.80;6.40;;;;;;;4.87;73.43;99989.69;1757962;80;21240;-74
2021/03/22 09:39:26;;;;;;;18.80;7.12;;;;;;;4.64;73.50;100001.50;1733301;81;21442;-73
2021/03/22 09:42:15;;;;;;;15.70;6.60;;;;;;;4.70;73.39;99999.37;1758660;80;21209;-73
2021/03/22 09:44:59;;;;;;;16.23;6.45;;;;;;;4.64;72.41;100008.03;1759052;80;21167;-74
2021/03/22 09:47:31;;;;;;;17.82;7.15;;;;;;;4.52;71.18;99995.92;1757335;80;21197;-72
2021/03/22 09:50:14;;;;;;;17.90;6.65;;;;;;;4.71;71.32;99989.23;1760736;80;21213;-76
2021/03/22 09:52:41;;;;;;;16.00;6.20;;;;;;;4.78;71.51;99987.31;1758142;80;21404;-74
2021/03/22 09:55:29;;;;;;;;;;;;;;;4.76;69.98;99989.72;1709213;80;21602;-74
2021/03/22 09:57:57;;;;;;;15.18;6.05;;;;;;;4.85;69.59;99981.14;1755161;79;20745;-75
2021/03/22 10:00:41;;;;;;;13.18;5.65;;;;;;;4.93;69.40;99977.41;1758908;79;21201;-75
2021/03/22 10:03:37;;;;;;;12.20;5.03;;;;;;;4.80;68.37;99981.96;1753443;79;21224;-75
2021/03/22 10:06:07;;;;;;;12.65;5.55;;;;;;;4.98;67.83;99979.17;1753680;80;21229;-75
2021/03/22 10:08:35;;;;;;;12.33;4.95;;;;;;;5.15;67.36;99973.05;1757559;80;21226;-75
2021/03/22 10:11:26;;;;;;;12.63;5.53;;;;;;;5.22;67.71;99972.92;1758918;80;21177;-76
2021/03/22 10:14:01;;;;;;;11.35;5.35;;;;;;;5.39;66.97;99980.20;1754464;80;21704;-76
2021/03/22 10:16:34;;;;;;;14.00;5.53;;;;;;;5.50;64.61;99988.94;1753685;80;21145;-74
2021/03/22 10:19:03;;;;;;;10.75;4.40;;;;;;;5.67;65.25;99972.67;1754103;79;21199;-72
2021/03/22 10:21:35;;;;;;;9.75;3.75;;;;;;;5.59;64.97;99976.39;1757118;80;21191;-74
2021/03/22 10:24:22;;;;;;;9.08;3.30;;;;;;;5.60;63.89;99993.78;1760191;80;21616;-73
2021/03/22 10:26:55;;;;;;;8.95;3.72;;;;;;;5.71;63.72;99977.98;1755123;79;21177;-73
2021/03/22 10:29:26;;;;;;;11.30;4.25;;;;;;;5.63;63.31;99973.88;1757979;79;21215;-73
2021/03/22 10:32:07;;;;;;;12.93;4.58;;;;;;;5.78;63.83;99973.53;1756363;79;21236;-74
2021/03/22 10:34:50;;;;;;;9.13;4.53;;;;;;;5.45;64.98;99978.02;1754700;79;21212;-73
2021/03/22 10:37:29;;;;;;;9.15;4.45;;;;;;;5.59;65.17;99973.77;1752961;80;21183;-73
2021/03/22 10:40:09;;;;;;;9.35;4.20;;;;;;;5.60;65.76;99982.48;1758442;80;21487;-74
2021/03/22 10:42:38;;;;;;;10.58;4.67;;;;;;;5.46;65.84;99990.17;1759477;79;21206;-74
2021/03/22 10:45:30;;;;;;;10.15;4.15;;;;;;;5.56;66.50;99973.56;1758934;80;22115;-74
2021/03/22 10:47:58;;;;;;;8.13;4.33;;;;;;;5.46;65.85;99988.86;1761625;80;21217;-74
2021/03/22 10:50:37;;;;;;;10.05;4.28;;;;;;;5.64;65.28;99995.20;1759047;80;21272;-72
2021/03/22 10:53:13;;;;;;;10.78;3.98;;;;;;;5.58;63.93;99978.67;1755878;80;21199;-73
2021/03/22 10:55:47;;;;;;;10.82;4.10;;;;;;;5.66;64.04;99991.95;1758953;80;21185;-73
2021/03/22 10:58:30;;;;;;;9.85;4.12;;;;;;;5.61;63.70;99982.81;1758459;80;21636;-74
2021/03/22 11:01:02;;;;;;;9.88;4.15;;;;;;;5.82;63.89;99967.09;1759453;80;21299;-73
2021/03/22 11:03:28;;;;;;;8.63;3.60;;;;;;;5.60;62.88;99979.38;1757965;80;21240;-74
2021/03/22 11:05:55;;;;;;;10.70;4.10;;;;;;;5.75;62.59;99989.88;1755668;80;21146;-74
2021/03/22 11:08:31;;;;;;;8.33;3.95;;;;;;;5.92;62.42;99982.39;1757870;80;21181;-74
2021/03/22 11:11:09;;;;;;;9.68;4.28;;;;;;;6.04;61.47;99979.22;1757632;80;22171;-74
2021/03/22 11:13:38;;;;;;;10.48;3.95;;;;;;;5.97;61.35;99979.41;1762215;80;21193;-75
2021/03/22 11:16:05;;;;;;;8.38;3.87;;;;;;;6.14;60.17;99984.49;1760377;80;21158;-74
2021/03/22 11:18:30;;;;;;;9.53;4.03;;;;;;;6.21;59.41;99986.95;1761487;80;21257;-74
2021/03/22 11:20:57;;;;;;;9.48;4.10;;;;;;;6.29;59.38;99962.20;1736532;80;27315;-74
2021/03/22 11:23:31;;;;;;;6.87;3.25;;;;;;;6.17;57.51;99960.64;1759593;80;22090;-74
2021/03/22 11:26:19;;;;;;;9.10;3.25;;;;;;;6.45;57.07;99979.58;1756201;80;21221;-72
2021/03/22 11:28:45;;;;;;;10.90;3.17;;;;;;;6.55;56.45;99965.17;1759112;80;21186;-73
2021/03/22 11:31:24;;;;;;;7.78;3.33;;;;;;;6.84;55.70;99959.16;1756662;80;28590;-73
2021/03/22 11:34:23;;;;;;;9.90;3.85;;;;;;;6.79;55.81;99951.69;1769168;79;21260;-73
2021/03/22 11:37:02;;;;;;;9.45;3.83;;;;;;;6.82;56.14;99957.13;1777587;79;21276;-73
2021/03/22 11:39:46;;;;;;;8.70;3.40;;;;;;;6.67;55.78;99959.83;1762606;79;21162;-73
2021/03/22 11:42:30;;;;;;;8.15;3.00;;;;;;;7.00;55.12;99948.11;1739413;79;21194;-74
2021/03/22 11:45:25;;;;;;;8.10;2.60;;;;;;;6.98;51.35;99955.30;1767096;79;21197;-75
2021/03/22 11:47:52;;;;;;;;;;;;;;;7.24;51.25;99946.84;1784522;78;21626;-73
2021/03/22 11:50:28;;;;;;;5.62;2.65;;;;;;;7.04;49.10;99948.19;1767800;78;22154;-73
2021/03/22 11:53:20;;;;;;;9.80;3.55;;;;;;;7.18;49.33;99949.07;1779678;79;21262;-72
2021/03/22 11:55:57;;;;;;;8.18;3.52;;;;;;;7.40;50.09;99952.38;1778241;79;21162;-72
2021/03/22 11:58:37;;;;;;;6.67;3.37;;;;;;;7.46;51.59;99946.55;1781033;78;21790;-73
2021/03/22 12:01:25;;;;;;;7.72;3.62;;;;;;;7.28;50.32;99960.05;1783186;79;21594;-73
2021/03/22 12:04:05;;;;;;;9.20;3.22;;;;;;;7.14;50.07;99960.81;1783842;79;21651;-73
2021/03/22 12:06:33;;;;;;;7.80;3.20;;;;;;;7.19;50.54;99958.62;1767972;78;21213;-73
2021/03/22 12:09:00;;;;;;;7.33;3.62;;;;;;;7.28;50.39;99954.80;1768174;78;21261;-75
2021/03/22 12:11:28;;;;;;;8.43;2.65;;;;;;;7.15;50.52;99957.22;1778696;79;21221;-73
2021/03/22 12:13:59;;;;;;;7.90;2.25;;;;;;;7.20;47.19;99960.75;1780162;79;21537;-73